Time;durP1;ratioP1;P1;durP2;ratioP2;P2;SDS_P1;SDS_P2;PMS_P1;PMS_P2;Temp;Humidity;BMP_temperature;BMP_pressure;BME280_temperature;BME280_humidity;BME280_pressure;Samples;Min_cycle;Max_cycle;Signal;HPM_P1;HPM_P2
2022/10/30 00:02:23;;;;;;;10.10;1.90;;;;;;;-145.69;100.00;52224.56;5157409;27;20554;-84
2022/10/30 00:04:51;;;;;;;19.10;2.83;;;;;;;-145.69;97.70;52254.28;5157499;27;20203;-84
2022/10/30 00:07:18;;;;;;;11.73;2.65;;;;;;;-145.69;95.75;52246.34;5156908;27;20228;-84
2022/10/30 00:09:44;;;;;;;9.85;2.22;;;;;;;-145.69;99.81;52232.50;5156928;27;20283;-85
2022/10/30 00:12:11;;;;;;;12.93;2.53;;;;;;;-145.69;97.02;52230.50;5157368;27;20227;-84
2022/10/30 00:14:37;;;;;;;21.17;2.35;;;;;;;-145.69;99.53;52266.16;5157059;27;20651;-85
2022/10/30 00:17:04;;;;;;;11.48;2.60;;;;;;;-145.69;100.00;52256.25;5157294;27;20200;-85
2022/10/30 00:19:30;;;;;;;13.82;2.30;;;;;;;-145.69;100.00;52244.38;5157108;27;20203;-84
2022/10/30 00:22:01;;;;;;;16.05;2.45;;;;;;;-145.69;100.00;52254.28;5156558;27;20192;-83
2022/10/30 00:24:28;;;;;;;10.57;1.98;;;;;;;-145.69;96.77;52289.91;5157020;27;20287;-84
2022/10/30 00:26:54;;;;;;;13.57;2.63;;;;;;;-145.69;100.00;52238.44;5156932;27;20631;-84
2022/10/30 00:29:22;;;;;;;12.25;2.22;;;;;;;-145.69;100.00;52282.00;5157141;27;20196;-85
2022/10/30 00:31:49;;;;;;;11.80;2.15;;;;;;;-145.69;100.00;52238.44;5157065;27;20196;-85
2022/10/30 00:34:15;;;;;;;9.35;1.73;;;;;;;-145.69;100.00;52238.44;5156635;27;20589;-84
2022/10/30 00:36:42;;;;;;;10.88;2.03;;;;;;;-145.69;100.00;52282.00;5156855;27;20256;-84
2022/10/30 00:39:10;;;;;;;13.50;2.38;;;;;;;-145.69;100.00;52266.16;5156572;27;20199;-85
2022/10/30 00:41:38;;;;;;;17.20;2.50;;;;;;;-145.69;100.00;52254.28;5156323;27;20203;-84
2022/10/30 00:44:40;;;;;;;12.30;1.88;;;;;;;-145.69;100.00;52250.31;5156637;27;20206;-84
2022/10/30 00:47:12;;;;;;;10.20;2.53;;;;;;;-145.69;100.00;52248.34;5149438;27;20219;-84
2022/10/30 00:49:52;;;;;;;9.90;2.30;;;;;;;-145.69;100.00;52283.97;5156980;27;20192;-84
2022/10/30 00:52:21;;;;;;;14.35;2.22;;;;;;;-145.69;100.00;52282.00;5156241;27;20203;-84
2022/10/30 00:54:49;;;;;;;11.20;2.33;;;;;;;-145.69;100.00;52282.00;5136609;27;20199;-83
2022/10/30 00:57:16;;;;;;;11.80;2.20;;;;;;;-145.69;100.00;52291.91;5135684;27;20201;-84
2022/10/30 00:59:42;;;;;;;15.77;2.78;;;;;;;-145.69;100.00;52280.00;5135374;27;20678;-84
2022/10/30 01:02:09;;;;;;;14.63;2.58;;;;;;;-145.69;100.00;52254.28;5118412;27;20528;-85
2022/10/30 01:04:39;;;;;;;15.40;2.70;;;;;;;-145.69;99.20;52264.16;5115368;28;20193;-85
2022/10/30 01:07:10;;;;;;;13.77;2.58;;;;;;;-145.69;98.60;52234.47;5114910;28;20221;-85
2022/10/30 01:09:37;;;;;;;7.05;2.28;;;;;;;-145.69;98.58;52236.44;5115124;28;20228;-84
2022/10/30 01:12:06;;;;;;;8.30;1.80;;;;;;;-145.69;96.62;52248.34;5114705;28;20205;-85
2022/10/30 01:14:35;;;;;;;11.88;2.00;;;;;;;-145.69;94.64;52248.34;5142096;27;20528;-84
2022/10/30 01:17:30;;;;;;;8.52;1.92;;;;;;;-145.69;100.00;52230.50;5156045;27;20542;-85
2022/10/30 01:20:09;;;;;;;11.88;2.20;;;;;;;-145.69;94.54;52260.22;5152792;27;20192;-84
2022/10/30 01:22:52;;;;;;;8.45;1.63;;;;;;;-145.69;95.56;52270.13;5155415;27;20196;-84
2022/10/30 01:25:32;;;;;;;9.65;2.17;;;;;;;-145.69;90.12;52278.03;5156061;27;20531;-85
2022/10/30 01:28:08;;;;;;;15.30;2.40;;;;;;;-145.69;95.53;52234.47;5150449;27;20220;-84
2022/10/30 01:30:47;;;;;;;16.40;2.40;;;;;;;-145.69;92.66;52258.22;5154704;27;20196;-84
2022/10/30 01:33:29;;;;;;;11.13;1.95;;;;;;;-145.69;87.02;52268.13;5155675;27;20249;-84
2022/10/30 01:36:01;;;;;;;9.73;1.83;;;;;;;-145.69;97.52;52246.34;5155757;27;20196;-85
2022/10/30 01:38:34;;;;;;;12.73;2.00;;;;;;;-145.69;90.19;52258.22;5155788;27;20202;-84
2022/10/30 01:41:00;;;;;;;8.93;1.77;;;;;;;-145.69;90.19;52228.53;5149399;27;20196;-84
2022/10/30 01:43:28;;;;;;;10.48;2.05;;;;;;;-145.69;90.72;52234.47;5133581;27;20643;-86
2022/10/30 01:46:29;;;;;;;13.27;2.28;;;;;;;-145.69;93.71;52252.28;5134844;27;20215;-85
2022/10/30 01:49:09;;;;;;;11.73;2.10;;;;;;;-145.69;97.06;52258.22;5134680;27;20288;-84
2022/10/30 01:51:50;;;;;;;9.90;2.47;;;;;;;-145.69;98.85;52240.41;5125607;27;20570;-84
2022/10/30 01:54:28;;;;;;;13.98;2.25;;;;;;;-145.69;98.05;52238.44;5114134;28;20205;-85
2022/10/30 01:57:04;;;;;;;15.52;2.58;;;;;;;-145.69;92.15;52276.06;5114108;28;20203;-84
2022/10/30 01:59:37;;;;;;;18.10;3.05;;;;;;;-145.69;95.65;52206.75;5149484;27;20199;-85
2022/10/30 02:02:04;;;;;;;11.85;2.30;;;;;;;-145.69;93.51;52254.28;5155440;27;20200;-84
2022/10/30 02:04:31;;;;;;;9.40;1.83;;;;;;;-145.69;95.28;52258.22;5154928;27;20231;-84
2022/10/30 02:06:58;;;;;;;25.30;2.47;;;;;;;-145.69;97.94;52285.97;5154286;27;20228;-85
2022/10/30 02:09:25;;;;;;;13.43;2.03;;;;;;;-145.69;92.13;52244.38;5155371;27;20223;-84
2022/10/30 02:11:53;;;;;;;17.13;2.25;;;;;;;-145.69;99.85;52248.34;5154999;27;20662;-84
2022/10/30 02:14:23;;;;;;;11.82;1.75;;;;;;;-145.69;100.00;52276.06;5155417;27;20200;-85
2022/10/30 02:16:54;;;;;;;13.38;2.05;;;;;;;-145.69;100.00;52250.31;5155445;27;20203;-84
2022/10/30 02:19:20;;;;;;;9.45;1.70;;;;;;;-145.69;95.97;52270.13;5155054;27;20646;-84
2022/10/30 02:21:49;;;;;;;14.48;2.15;;;;;;;-145.69;100.00;52242.38;5139045;27;20288;-84
2022/10/30 02:24:15;;;;;;;16.75;1.73;;;;;;;-145.69;92.00;52254.28;5134086;27;20283;-83
2022/10/30 02:26:42;;;;;;;8.65;1.80;;;;;;;-145.69;89.24;52232.50;5134048;27;20223;-84
2022/10/30 02:29:08;;;;;;;7.38;1.60;;;;;;;-145.69;93.65;52244.38;5149187;27;20192;-85
2022/10/30 02:31:36;;;;;;;4.65;1.30;;;;;;;-145.69;83.31;52218.63;5154830;27;20242;-85
2022/10/30 02:34:02;;;;;;;3.72;1.13;;;;;;;-145.69;91.42;52256.25;5154826;27;20231;-83
2022/10/30 02:36:29;;;;;;;13.23;1.50;;;;;;;-145.69;100.00;52232.50;5155453;27;20203;-85
2022/10/30 02:38:57;;;;;;;9.15;1.58;;;;;;;-145.69;99.10;52262.19;5155280;27;20192;-85
2022/10/30 02:41:24;;;;;;;8.27;1.98;;;;;;;-145.69;100.00;52246.34;5154823;27;20202;-84
2022/10/30 02:43:52;;;;;;;14.68;1.85;;;;;;;-145.69;100.00;52246.34;5154658;27;20196;-84
2022/10/30 02:46:18;;;;;;;10.05;1.80;;;;;;;-145.69;100.00;52278.03;5154551;27;20226;-84
2022/10/30 02:48:45;;;;;;;7.93;1.80;;;;;;;-145.69;100.00;52234.47;5154640;27;20245;-85
2022/10/30 02:51:11;;;;;;;12.20;1.95;;;;;;;-145.69;100.00;52283.97;5154895;27;20208;-85
2022/10/30 02:53:38;;;;;;;6.35;1.48;;;;;;;-145.69;91.27;52244.38;5154998;27;20192;-85
2022/10/30 02:56:08;;;;;;;10.90;1.50;;;;;;;-145.69;100.00;52280.00;5154922;27;20562;-84
2022/10/30 02:58:35;;;;;;;10.80;2.03;;;;;;;-145.69;100.00;52270.13;5153695;27;20255;-84
2022/10/30 03:01:05;;;;;;;13.93;1.50;;;;;;;-145.69;89.33;52246.34;5154899;27;20200;-85
2022/10/30 03:03:32;;;;;;;10.50;1.55;;;;;;;-145.69;97.46;52238.44;5135163;27;20201;-85
2022/10/30 03:06:00;;;;;;;9.20;1.73;;;;;;;-145.69;95.21;52246.34;5134275;28;20642;-85
2022/10/30 03:08:27;;;;;;;11.32;1.30;;;;;;;-145.69;99.54;52268.13;5131564;27;20221;-84
2022/10/30 03:10:59;;;;;;;10.43;1.30;;;;;;;-145.69;100.00;52230.50;5133743;28;20197;-84
2022/10/30 03:13:27;;;;;;;9.55;1.60;;;;;;;-145.69;91.18;52254.28;5133860;27;20200;-84
2022/10/30 03:15:59;;;;;;;14.32;1.45;;;;;;;-145.69;96.84;52274.06;5133901;28;20211;-84
2022/10/30 03:18:25;;;;;;;13.73;1.50;;;;;;;-145.69;96.32;52274.06;5134885;27;20678;-84
2022/10/30 03:20:56;;;;;;;8.98;1.60;;;;;;;-145.69;100.00;52280.00;5137604;27;20201;-84
2022/10/30 03:23:22;;;;;;;9.65;1.40;;;;;;;-145.69;100.00;52297.84;5138057;27;20203;-84
2022/10/30 03:25:53;;;;;;;5.70;1.35;;;;;;;-145.69;100.00;52282.00;5137651;27;20196;-84
2022/10/30 03:28:19;;;;;;;6.43;1.00;;;;;;;-145.69;99.01;52272.09;5137655;27;20568;-86
2022/10/30 03:30:47;;;;;;;4.05;1.10;;;;;;;-145.69;89.46;52238.44;5137595;27;20196;-84
2022/10/30 03:33:13;;;;;;;4.75;1.10;;;;;;;-145.69;96.92;52274.06;5137207;27;20235;-84
2022/10/30 03:35:40;;;;;;;11.90;1.20;;;;;;;-145.69;95.63;52285.97;5137340;27;20201;-84
2022/10/30 03:38:07;;;;;;;7.43;1.20;;;;;;;-145.69;84.86;52242.38;5137067;27;20200;-84
2022/10/30 03:40:33;;;;;;;4.50;1.00;;;;;;;-145.69;86.12;52254.28;5136961;27;20524;-85
2022/10/30 03:42:59;;;;;;;3.85;1.10;;;;;;;-145.69;90.08;52234.47;5137227;27;20197;-85
2022/10/30 03:45:26;;;;;;;6.22;1.48;;;;;;;-145.69;99.87;52272.09;5137311;27;20215;-84
2022/10/30 03:47:54;;;;;;;3.80;1.10;;;;;;;-145.69;97.23;52250.31;5137199;27;20225;-84
2022/10/30 03:50:20;;;;;;;9.43;1.33;;;;;;;-145.69;100.00;52238.44;5136999;27;20197;-84
2022/10/30 03:52:47;;;;;;;7.75;1.60;;;;;;;-145.69;100.00;52289.91;5137181;27;20193;-84
2022/10/30 03:55:13;;;;;;;4.15;1.23;;;;;;;-145.69;100.00;52264.16;5137230;27;20200;-85
2022/10/30 03:57:40;;;;;;;3.63;1.30;;;;;;;-145.69;100.00;52280.00;5136864;27;20200;-85
2022/10/30 04:00:08;;;;;;;5.35;1.38;;;;;;;-145.69;100.00;52270.13;5136785;27;20678;-84
2022/10/30 04:02:34;;;;;;;11.55;1.42;;;;;;;-145.69;100.00;52258.22;5136663;27;20197;-83
2022/10/30 04:05:02;;;;;;;2.95;1.35;;;;;;;-145.69;100.00;52270.13;5136793;27;20200;-84
2022/10/30 04:07:29;;;;;;;2.30;1.05;;;;;;;-145.69;97.48;52266.16;5136074;27;20221;-84
2022/10/30 04:09:55;;;;;;;6.22;1.58;;;;;;;-145.69;95.03;52254.28;5136873;27;20233;-83
2022/10/30 04:12:22;;;;;;;6.70;1.10;;;;;;;-145.69;92.10;52266.16;5136648;27;20192;-85
2022/10/30 04:14:48;;;;;;;2.17;1.02;;;;;;;-145.69;93.00;52254.28;5136572;27;20207;-84
2022/10/30 04:17:15;;;;;;;5.78;1.02;;;;;;;-145.69;99.79;52254.28;5136779;27;20209;-84
2022/10/30 04:19:41;;;;;;;11.32;1.20;;;;;;;-145.69;100.00;52232.50;5135879;27;20563;-84
2022/10/30 04:22:09;;;;;;;7.78;0.98;;;;;;;-145.69;100.00;52250.31;5140791;27;20199;-84
2022/10/30 04:24:38;;;;;;;10.70;1.40;;;;;;;-145.69;99.94;52258.22;5156888;27;20470;-84
2022/10/30 04:27:05;;;;;;;3.33;0.98;;;;;;;-145.69;100.00;52268.13;5157049;27;20200;-84
2022/10/30 04:29:31;;;;;;;6.32;0.88;;;;;;;-145.69;100.00;52270.13;5156367;27;20197;-83
2022/10/30 04:31:58;;;;;;;11.38;1.20;;;;;;;-145.69;100.00;52244.38;5156754;27;20207;-86
2022/10/30 04:34:24;;;;;;;7.35;1.05;;;;;;;-145.69;100.00;52242.38;5156813;27;20567;-84
2022/10/30 04:36:51;;;;;;;4.20;1.03;;;;;;;-145.69;100.00;52285.97;5157333;27;20235;-84
2022/10/30 04:39:19;;;;;;;11.70;1.33;;;;;;;-145.69;100.00;52282.00;5156964;27;20279;-85
2022/10/30 04:41:45;;;;;;;4.13;0.80;;;;;;;-145.69;100.00;52256.25;5157214;27;20673;-84
2022/10/30 04:44:12;;;;;;;14.85;1.20;;;;;;;-145.69;100.00;52285.97;5156773;27;20206;-85
2022/10/30 04:46:38;;;;;;;7.93;1.10;;;;;;;-145.69;100.00;52264.16;5140461;27;20201;-85
2022/10/30 04:49:05;;;;;;;5.13;1.17;;;;;;;-145.69;100.00;52272.09;5135743;27;20258;-84
2022/10/30 04:51:32;;;;;;;3.47;1.00;;;;;;;-145.69;100.00;52270.13;5135835;27;20291;-85
2022/10/30 04:53:58;;;;;;;8.47;1.30;;;;;;;-145.69;100.00;52228.53;5136084;27;20196;-85
2022/10/30 04:56:26;;;;;;;4.73;0.80;;;;;;;-145.69;88.37;52262.19;5136530;27;20541;-84
2022/10/30 04:58:53;;;;;;;4.63;1.03;;;;;;;-145.69;85.35;52280.00;5135696;27;20211;-84
2022/10/30 05:01:20;;;;;;;3.83;1.27;;;;;;;-145.69;84.69;52270.13;5137121;27;20193;-84
2022/10/30 05:03:46;;;;;;;7.23;1.30;;;;;;;-145.69;97.30;52291.91;5155915;27;20196;-84
2022/10/30 05:06:19;;;;;;;6.30;1.00;;;;;;;-145.69;100.00;52270.13;5156582;27;20207;-85
2022/10/30 05:08:46;;;;;;;7.85;1.52;;;;;;;-145.69;100.00;52252.28;5116761;27;20458;-84
2022/10/30 05:11:12;;;;;;;6.57;1.20;;;;;;;-145.69;100.00;52278.03;5114965;28;20201;-85
2022/10/30 05:13:40;;;;;;;3.88;0.90;;;;;;;-145.69;100.00;52250.31;5114777;28;20201;-84
2022/10/30 05:16:07;;;;;;;7.30;1.27;;;;;;;-145.69;100.00;52283.97;5114635;28;20201;-84
2022/10/30 05:18:34;;;;;;;2.70;1.15;;;;;;;-145.69;100.00;52256.25;5114929;28;20205;-84
2022/10/30 05:21:00;;;;;;;9.17;1.30;;;;;;;-145.69;100.00;52293.88;5114570;28;20552;-84
2022/10/30 05:23:27;;;;;;;2.63;0.90;;;;;;;-145.69;100.00;52278.03;5114562;28;20201;-84
2022/10/30 05:25:53;;;;;;;4.90;1.27;;;;;;;-145.69;100.00;52270.13;5114782;27;20206;-85
2022/10/30 05:28:20;;;;;;;9.50;1.10;;;;;;;-145.69;100.00;52268.13;5155618;27;20224;-84
2022/10/30 05:30:47;;;;;;;1.67;0.80;;;;;;;-145.69;100.00;52262.19;5155964;27;20203;-85
2022/10/30 05:33:16;;;;;;;5.43;1.20;;;;;;;-145.69;100.00;52283.97;5155798;27;20227;-85
2022/10/30 05:35:42;;;;;;;6.13;1.00;;;;;;;-145.69;100.00;52307.75;5155962;27;20196;-84
2022/10/30 05:38:13;;;;;;;2.63;0.67;;;;;;;-145.69;97.74;52297.84;5155506;27;20196;-85
2022/10/30 05:40:40;;;;;;;6.60;1.10;;;;;;;-145.69;93.27;52278.03;5155798;27;20559;-84
2022/10/30 05:43:07;;;;;;;6.22;1.15;;;;;;;-145.69;87.98;52254.28;5155422;27;20646;-85
2022/10/30 05:45:34;;;;;;;5.43;1.20;;;;;;;-145.69;100.00;52270.13;5155487;27;20200;-85
2022/10/30 05:48:04;;;;;;;5.80;0.93;;;;;;;-145.69;95.22;52282.00;5155589;27;20224;-85
2022/10/30 05:50:31;;;;;;;11.98;0.98;;;;;;;-145.69;100.00;52274.06;5155660;27;20200;-85
2022/10/30 05:52:58;;;;;;;5.10;1.00;;;;;;;-145.69;100.00;52258.22;5155744;27;20202;-84
2022/10/30 05:55:25;;;;;;;6.80;1.10;;;;;;;-145.69;100.00;52297.84;5155520;27;20200;-84
2022/10/30 05:57:56;;;;;;;8.93;1.10;;;;;;;-145.69;100.00;52270.13;5138813;27;20284;-85
2022/10/30 06:00:22;;;;;;;2.33;0.97;;;;;;;-145.69;98.14;52274.06;5134874;27;20257;-83
2022/10/30 06:02:49;;;;;;;9.10;1.33;;;;;;;-145.69;100.00;52274.06;5135069;27;20193;-85
2022/10/30 06:05:16;;;;;;;5.77;1.30;;;;;;;-145.69;100.00;52276.06;5134854;27;20682;-84
2022/10/30 06:07:43;;;;;;;8.25;1.20;;;;;;;-145.69;100.00;52301.81;5134613;27;20661;-85
2022/10/30 06:10:09;;;;;;;3.53;0.67;;;;;;;-145.69;100.00;52252.28;5134431;27;20193;-84
2022/10/30 06:12:36;;;;;;;4.23;1.03;;;;;;;-145.69;100.00;52272.09;5134337;27;20208;-84
2022/10/30 06:15:02;;;;;;;8.93;1.43;;;;;;;-145.69;100.00;52283.97;5134609;27;20215;-83
2022/10/30 06:17:30;;;;;;;5.67;1.53;;;;;;;-145.69;100.00;52264.16;5134638;27;20238;-85
2022/10/30 06:19:56;;;;;;;4.53;1.20;;;;;;;-145.69;97.10;52258.22;5134469;27;20201;-83
2022/10/30 06:22:24;;;;;;;3.08;0.90;;;;;;;-145.69;100.00;52248.34;5134708;27;20670;-84
2022/10/30 06:24:51;;;;;;;5.47;1.03;;;;;;;-145.69;100.00;52285.97;5134419;27;20224;-84
2022/10/30 06:27:17;;;;;;;5.50;1.30;;;;;;;-145.69;100.00;52276.06;5145967;27;20192;-83
2022/10/30 06:29:44;;;;;;;4.03;1.10;;;;;;;-145.69;100.00;52285.97;5155135;27;20227;-84
2022/10/30 06:32:10;;;;;;;4.53;1.20;;;;;;;-145.69;100.00;52256.25;5154804;27;20653;-85
2022/10/30 06:34:37;;;;;;;7.97;1.50;;;;;;;-145.69;100.00;52252.28;5141137;27;20228;-85
2022/10/30 06:37:03;;;;;;;5.53;1.02;;;;;;;-145.69;94.61;52319.63;5134295;27;20204;-85
2022/10/30 06:39:31;;;;;;;8.90;1.30;;;;;;;-145.69;100.00;52274.06;5134056;27;20222;-84
2022/10/30 06:41:57;;;;;;;4.87;0.97;;;;;;;-145.69;100.00;52278.03;5134092;28;20193;-85
2022/10/30 06:44:24;;;;;;;5.40;1.30;;;;;;;-145.69;100.00;52262.19;5134228;28;20197;-84
2022/10/30 06:46:52;;;;;;;4.38;1.42;;;;;;;-145.69;100.00;52266.16;5134118;28;20651;-84
2022/10/30 06:49:19;;;;;;;3.60;0.90;;;;;;;-145.69;100.00;52276.06;5134166;27;20224;-85
2022/10/30 06:51:46;;;;;;;6.57;1.00;;;;;;;-145.69;100.00;52258.22;5134062;28;20196;-83
2022/10/30 06:54:12;;;;;;;3.00;1.17;;;;;;;-145.69;100.00;52264.16;5136347;27;20674;-85
2022/10/30 06:56:40;;;;;;;3.25;1.48;;;;;;;-145.69;99.73;52246.34;5138311;27;20208;-84
2022/10/30 06:59:07;;;;;;;2.33;1.00;;;;;;;-145.69;99.06;52266.16;5138197;27;20207;-84
2022/10/30 07:01:33;;;;;;;3.42;1.10;;;;;;;-145.69;97.66;52254.28;5138116;27;20197;-84
2022/10/30 07:04:00;;;;;;;2.88;1.00;;;;;;;-145.69;100.00;52264.16;5142031;27;20188;-84
2022/10/30 07:06:26;;;;;;;6.40;1.30;;;;;;;-145.69;98.55;52244.38;5146721;27;20205;-83
2022/10/30 07:08:53;;;;;;;10.23;1.38;;;;;;;-145.69;94.35;52272.09;5158368;27;20710;-85
2022/10/30 07:11:19;;;;;;;3.40;1.05;;;;;;;-145.69;94.59;52289.91;5158301;27;20203;-83
2022/10/30 07:13:47;;;;;;;4.15;1.02;;;;;;;-145.69;91.48;52250.31;5158193;27;20223;-83
2022/10/30 07:16:14;;;;;;;4.05;1.20;;;;;;;-145.69;90.59;52222.59;5158569;27;20227;-84
2022/10/30 07:18:40;;;;;;;6.35;1.42;;;;;;;-145.69;92.11;52226.53;5158285;27;20204;-83
2022/10/30 07:21:07;;;;;;;5.45;1.35;;;;;;;-145.69;91.39;52260.22;5157766;27;20193;-85
2022/10/30 07:23:33;;;;;;;3.35;0.93;;;;;;;-145.69;87.62;52234.47;5158120;27;20646;-84
2022/10/30 07:26:00;;;;;;;3.85;1.17;;;;;;;-145.69;90.29;52238.44;5157904;27;20643;-83
2022/10/30 07:28:26;;;;;;;7.03;1.38;;;;;;;-145.69;85.36;52250.31;5158124;27;20582;-84
2022/10/30 07:30:54;;;;;;;1.67;0.77;;;;;;;-145.69;87.13;52238.44;5158065;27;20202;-85
2022/10/30 07:33:21;;;;;;;5.60;1.05;;;;;;;-145.69;90.89;52242.38;5157650;27;20224;-84
2022/10/30 07:35:47;;;;;;;4.05;1.10;;;;;;;-145.69;86.48;52244.38;5157780;27;20207;-84
2022/10/30 07:38:14;;;;;;;3.20;1.20;;;;;;;-145.69;94.21;52220.59;5158092;27;20563;-85
2022/10/30 07:40:40;;;;;;;3.28;0.80;;;;;;;-145.69;94.80;52234.47;5158053;27;20192;-84
2022/10/30 07:43:09;;;;;;;3.67;1.33;;;;;;;-145.69;91.39;52236.44;5157794;27;20199;-85
2022/10/30 07:45:35;;;;;;;4.10;1.15;;;;;;;-145.69;89.08;52232.50;5157751;27;20356;-84
2022/10/30 07:48:04;;;;;;;1.98;0.80;;;;;;;-145.69;88.89;52220.59;5157525;27;20196;-85
2022/10/30 07:50:30;;;;;;;4.55;0.80;;;;;;;-145.69;88.46;52238.44;5157878;27;20673;-84
2022/10/30 07:52:57;;;;;;;3.13;0.90;;;;;;;-145.69;87.75;52226.53;5140981;27;20197;-84
2022/10/30 07:55:24;;;;;;;2.88;0.95;;;;;;;-145.69;88.27;52218.63;5136776;27;20559;-85
2022/10/30 07:57:50;;;;;;;4.00;0.82;;;;;;;-145.69;90.74;52210.72;5136724;27;20200;-83
2022/10/30 08:00:17;;;;;;;5.82;1.00;;;;;;;-145.69;93.07;52216.66;5136582;27;20201;-85
2022/10/30 08:02:44;;;;;;;4.90;1.10;;;;;;;-145.69;93.60;52258.22;5136344;27;20201;-85
2022/10/30 08:05:12;;;;;;;3.75;1.38;;;;;;;-145.69;91.32;52228.53;5136635;27;20200;-83
2022/10/30 08:07:38;;;;;;;1.52;0.90;;;;;;;-145.69;93.29;52226.53;5136457;27;20197;-82
2022/10/30 08:10:06;;;;;;;6.93;1.13;;;;;;;-145.69;92.42;52252.28;5152775;27;20216;-82
2022/10/30 08:12:34;;;;;;;7.55;0.90;;;;;;;-145.69;94.50;52262.19;5157287;27;20207;-82
2022/10/30 08:15:00;;;;;;;4.53;1.23;;;;;;;-145.69;94.35;52218.63;5156957;27;20196;-84
2022/10/30 08:17:27;;;;;;;8.13;1.73;;;;;;;-145.69;94.98;52214.66;5151896;27;20188;-82
2022/10/30 08:19:54;;;;;;;5.35;0.90;;;;;;;-145.69;95.65;52210.72;5145069;27;20724;-82
2022/10/30 08:22:22;;;;;;;10.20;1.17;;;;;;;-145.69;96.67;52194.88;5136041;27;20201;-82
2022/10/30 08:24:48;;;;;;;3.40;0.93;;;;;;;-145.69;96.09;52218.63;5136173;27;20197;-82
2022/10/30 08:27:15;;;;;;;3.75;1.00;;;;;;;-145.69;94.61;52236.44;5136179;27;20185;-84
2022/10/30 08:29:41;;;;;;;4.35;1.05;;;;;;;-145.69;92.32;52238.44;5135951;27;20560;-83
2022/10/30 08:32:08;;;;;;;6.05;1.00;;;;;;;-145.69;90.03;52254.28;5135521;27;20197;-83
2022/10/30 08:34:34;;;;;;;1.75;1.00;;;;;;;-145.69;89.98;52226.53;5136115;27;20235;-84
2022/10/30 08:37:01;;;;;;;2.25;1.15;;;;;;;-145.69;94.75;52179.03;5135705;27;20200;-83
2022/10/30 08:39:34;;;;;;;2.33;0.93;;;;;;;-145.69;96.10;52214.66;5135784;27;20200;-83
2022/10/30 08:42:01;;;;;;;5.30;1.20;;;;;;;-145.69;93.17;52234.47;5135821;27;20293;-83
2022/10/30 08:44:27;;;;;;;1.75;1.00;;;;;;;-145.69;88.70;52226.53;5135576;27;20222;-82
2022/10/30 08:46:54;;;;;;;4.93;1.02;;;;;;;-145.69;89.09;52226.53;5135544;27;20196;-83
2022/10/30 08:49:20;;;;;;;2.88;0.98;;;;;;;-145.69;87.14;52212.69;5135514;27;20228;-83
2022/10/30 08:51:47;;;;;;;3.58;0.95;;;;;;;-145.69;85.73;52226.53;5135742;27;20208;-83
2022/10/30 08:54:13;;;;;;;5.82;1.02;;;;;;;-145.69;84.84;52224.56;5135433;27;20216;-84
2022/10/30 08:56:41;;;;;;;2.72;1.15;;;;;;;-145.69;84.53;52226.53;5135287;27;20207;-83
2022/10/30 08:59:07;;;;;;;5.68;1.63;;;;;;;-145.69;84.59;52234.47;5153005;27;20674;-83
2022/10/30 09:01:35;;;;;;;2.25;0.90;;;;;;;-145.69;83.94;52226.53;5153999;27;20220;-84
2022/10/30 09:04:02;;;;;;;4.47;0.80;;;;;;;-145.69;84.29;52184.97;5156177;27;20222;-83
2022/10/30 09:06:29;;;;;;;5.30;1.00;;;;;;;-145.69;85.11;52198.81;5151021;27;20739;-83
2022/10/30 09:08:56;;;;;;;3.28;0.90;;;;;;;-145.69;80.61;52206.75;5115510;27;20217;-83
2022/10/30 09:11:22;;;;;;;2.78;0.90;;;;;;;-145.69;81.28;52186.94;5114571;28;20197;-83
2022/10/30 09:13:50;;;;;;;4.22;1.33;;;;;;;-145.69;84.80;52151.28;5114269;28;20227;-84
2022/10/30 09:16:17;;;;;;;3.70;1.00;;;;;;;-145.69;88.02;52210.72;5114109;28;20209;-83
2022/10/30 09:18:43;;;;;;;2.40;0.80;;;;;;;-145.69;85.31;52202.78;5114572;28;20205;-84
2022/10/30 09:21:10;;;;;;;2.88;0.90;;;;;;;-145.69;82.01;52192.88;5114283;28;20202;-84
2022/10/30 09:23:37;;;;;;;2.67;1.00;;;;;;;-145.69;75.69;52210.72;5114318;28;20202;-84
2022/10/30 09:26:03;;;;;;;3.70;0.90;;;;;;;-145.69;74.99;52184.97;5114300;28;20258;-83
2022/10/30 09:28:30;;;;;;;3.25;0.80;;;;;;;-145.69;73.01;52190.91;5154015;27;20207;-84
2022/10/30 09:30:57;;;;;;;3.75;1.10;;;;;;;-145.69;68.72;52188.91;5156049;27;20227;-83
2022/10/30 09:33:24;;;;;;;3.67;0.90;;;;;;;-145.69;62.41;52173.09;5156113;27;20250;-84
2022/10/30 09:35:50;;;;;;;8.60;4.93;;;;;;;-145.69;62.72;52177.03;5156238;27;20234;-83
2022/10/30 09:38:17;;;;;;;9.48;3.92;;;;;;;-145.69;67.98;52171.09;5156700;27;20281;-84
2022/10/30 09:41:09;;;;;;;7.05;3.53;;;;;;;-145.69;69.14;52167.13;5157259;27;20200;-83
2022/10/30 09:43:41;;;;;;;3.63;1.65;;;;;;;-145.69;71.79;52175.06;5157168;27;20286;-84
2022/10/30 09:46:27;;;;;;;3.53;1.40;;;;;;;-145.69;60.38;52139.41;5156488;27;20206;-84
2022/10/30 09:49:05;;;;;;;2.83;2.00;;;;;;;-145.69;63.88;52143.38;5155356;27;20200;-83
2022/10/30 09:51:48;;;;;;;4.53;2.55;;;;;;;-145.69;66.85;52135.47;5156417;27;20200;-83
2022/10/30 09:54:21;;;;;;;4.53;1.20;;;;;;;-145.69;65.18;52131.50;5155915;27;20200;-84
2022/10/30 09:56:52;;;;;;;4.18;1.15;;;;;;;-145.69;62.73;52129.50;5150799;27;20196;-84
2022/10/30 09:59:31;;;;;;;2.60;0.80;;;;;;;-145.69;58.72;52103.78;5134419;27;20200;-83
2022/10/30 10:02:04;;;;;;;3.08;0.82;;;;;;;-145.69;57.21;52139.41;5135568;27;20646;-83
2022/10/30 10:04:38;;;;;;;1.92;0.80;;;;;;;-145.69;60.09;52143.38;5134290;27;20204;-84
2022/10/30 10:07:13;;;;;;;3.13;0.98;;;;;;;-145.69;51.40;52105.75;5134146;27;20192;-83
2022/10/30 10:09:41;;;;;;;1.60;0.82;;;;;;;-145.69;51.49;52143.38;5133946;27;20216;-83
2022/10/30 10:12:11;;;;;;;3.50;1.00;;;;;;;-145.69;51.20;52119.63;5134363;27;20207;-83
2022/10/30 10:14:42;;;;;;;2.17;1.10;;;;;;;-145.69;52.63;52141.41;5134244;27;20200;-84
2022/10/30 10:17:13;;;;;;;2.83;1.08;;;;;;;-145.69;58.33;52109.72;5133876;27;20425;-83
2022/10/30 10:19:47;;;;;;;7.55;1.15;;;;;;;-145.69;56.80;52107.72;5132660;27;20228;-83
2022/10/30 10:22:20;;;;;;;1.20;0.68;;;;;;;-145.69;46.50;52123.56;5132955;27;20203;-83
2022/10/30 10:24:51;;;;;;;1.48;0.75;;;;;;;-145.69;49.66;52099.81;5131281;28;20208;-83
2022/10/30 10:27:43;;;;;;;3.33;0.80;;;;;;;-145.69;49.46;52095.84;5144165;27;20192;-83
2022/10/30 10:30:15;;;;;;;3.40;1.00;;;;;;;-145.69;46.51;52111.69;5158798;27;20685;-83
2022/10/30 10:33:20;;;;;;;5.50;0.95;;;;;;;-145.69;46.77;52072.09;5157654;27;20205;-82
2022/10/30 10:36:07;;;;;;;6.15;0.90;;;;;;;-145.69;48.68;52091.88;5159658;27;20547;-82
2022/10/30 10:38:56;;;;;;;2.83;1.00;;;;;;;-145.69;49.86;52087.94;5156037;27;20200;-81
2022/10/30 10:41:36;;;;;;;2.63;0.98;;;;;;;-145.69;51.19;52099.81;5159268;27;20204;-83
2022/10/30 10:44:20;;;;;;;4.60;1.10;;;;;;;-145.69;46.66;52072.09;5158503;27;20199;-82
2022/10/30 10:47:01;;;;;;;2.00;0.90;;;;;;;-145.69;46.88;52103.78;5158732;27;20598;-82
2022/10/30 10:49:58;;;;;;;5.88;1.20;;;;;;;-145.69;48.27;52072.09;5158421;27;20315;-82
2022/10/30 10:52:37;;;;;;;4.97;0.95;;;;;;;-145.69;49.00;52060.22;5158806;27;20596;-83
2022/10/30 10:55:07;;;;;;;1.83;1.20;;;;;;;-145.69;48.95;52072.09;5158626;27;20196;-83
2022/10/30 10:57:37;;;;;;;3.17;1.00;;;;;;;-145.69;48.62;52064.16;5144809;27;20192;-83
2022/10/30 11:00:07;;;;;;;4.13;1.02;;;;;;;-145.69;49.41;52056.25;5136305;27;20199;-82
2022/10/30 11:02:40;;;;;;;3.53;1.00;;;;;;;-145.69;45.72;52056.25;5138088;27;20196;-83
2022/10/30 11:05:16;;;;;;;4.55;1.50;;;;;;;-145.69;50.92;52068.13;5137737;27;20192;-84
2022/10/30 11:07:47;;;;;;;4.82;1.02;;;;;;;-145.69;47.38;52082.00;5137749;27;20197;-84
2022/10/30 11:10:16;;;;;;;6.32;1.20;;;;;;;-145.69;46.96;52028.53;5137369;27;20259;-85
2022/10/30 11:12:42;;;;;;;4.65;1.20;;;;;;;-145.69;47.65;52064.16;5135700;27;20555;-84
2022/10/30 11:15:24;;;;;;;8.70;1.55;;;;;;;-145.69;53.08;52068.13;5135555;27;20196;-84
2022/10/30 11:17:59;;;;;;;4.97;1.25;;;;;;;-145.69;53.93;52052.28;5137750;27;20196;-85
2022/10/30 11:20:34;;;;;;;4.55;1.75;;;;;;;-145.69;49.30;52072.09;5136176;27;20196;-85
2022/10/30 11:23:01;;;;;;;3.78;1.20;;;;;;;-145.69;52.79;52016.66;5136309;27;20204;-85